Terminal Aerodrome Forecast
Issued by NWS

Home | Current Version | Previous Version | Text Only | Print | Product List | Glossary On
Versions: 1 2 3 4 5 6 7 8 9 10 11 12 13 14 15
272
FTUS41 KPBZ 252338
TAFDUJ
TAF
KDUJ 252338Z 2600/2624 08008KT 3SM BR BKN015
     FM260300 09004KT 6SM BR BKN008
     FM260900 09003KT 2SM BR BKN008
     FM261400 17003KT P6SM SCT015=

USA.gov is the U.S. government's official web portal to all federal, state and local government web resources and services.